Time;durP1;ratioP1;P1;durP2;ratioP2;P2;SDS_P1;SDS_P2;PMS_P1;PMS_P2;Temp;Humidity;BMP_temperature;BMP_pressure;BME280_temperature;BME280_humidity;BME280_pressure;Samples;Min_cycle;Max_cycle;Signal;HPM_P1;HPM_P2
2021/10/16 00:00:15;;;;;;;7.20;3.47;;;8.60;95.70;;;;;;5059453;28;20441;-87
2021/10/16 00:02:41;;;;;;;7.78;3.42;;;8.60;95.70;;;;;;5059267;28;20025;-87
2021/10/16 00:05:07;;;;;;;6.70;3.08;;;8.60;95.90;;;;;;5059004;28;20062;-87
2021/10/16 00:07:33;;;;;;;6.25;2.80;;;8.60;96.00;;;;;;5029503;28;20029;-85
2021/10/16 00:09:59;;;;;;;5.35;2.47;;;8.60;96.00;;;;;;5048507;28;20086;-86
2021/10/16 00:12:25;;;;;;;4.43;2.20;;;8.50;95.80;;;;;;5062451;28;20024;-86
2021/10/16 00:14:51;;;;;;;3.60;2.20;;;8.50;95.90;;;;;;5065336;28;20557;-85
2021/10/16 00:17:17;;;;;;;5.22;2.30;;;8.50;96.00;;;;;;5061427;28;20020;-87
2021/10/16 00:19:43;;;;;;;4.28;2.75;;;8.50;95.80;;;;;;5059054;28;20068;-87
2021/10/16 00:22:10;;;;;;;7.63;2.60;;;8.50;95.80;;;;;;5022789;28;20033;-86
2021/10/16 00:24:36;;;;;;;5.20;2.20;;;8.40;95.60;;;;;;5026099;28;20024;-87
2021/10/16 00:27:02;;;;;;;4.65;2.30;;;8.40;95.80;;;;;;5059156;28;20055;-87
2021/10/16 00:29:27;;;;;;;4.85;2.65;;;8.40;95.90;;;;;;5076713;28;20024;-87
2021/10/16 00:31:53;;;;;;;4.88;2.40;;;8.40;96.00;;;;;;5059789;28;20023;-87
2021/10/16 00:34:19;;;;;;;4.93;2.30;;;8.40;95.80;;;;;;5045470;28;20060;-87
2021/10/16 00:36:45;;;;;;;6.63;2.40;;;8.30;95.90;;;;;;5043066;28;20013;-86
2021/10/16 00:39:10;;;;;;;5.40;2.80;;;8.30;96.00;;;;;;5041496;28;20021;-86
2021/10/16 00:41:36;;;;;;;4.72;2.45;;;8.30;96.10;;;;;;5039976;28;20029;-88
2021/10/16 00:44:15;;;;;;;6.68;2.60;;;8.30;96.20;;;;;;5042274;28;20059;-88
2021/10/16 00:46:41;;;;;;;5.35;2.50;;;8.30;96.30;;;;;;5058845;28;20115;-88
2021/10/16 00:49:07;;;;;;;4.82;2.80;;;8.20;96.10;;;;;;5058471;28;20025;-88
2021/10/16 00:51:33;;;;;;;6.00;2.88;;;8.20;96.20;;;;;;5028111;28;20033;-88
2021/10/16 00:54:00;;;;;;;6.30;2.47;;;8.20;96.30;;;;;;5042142;28;20119;-88
2021/10/16 00:56:25;;;;;;;7.30;3.47;;;8.20;96.30;;;;;;5075017;28;20056;-88
2021/10/16 00:58:53;;;;;;;7.60;2.97;;;8.20;96.30;;;;;;5025915;28;20546;-88
2021/10/16 01:01:19;;;;;;;5.18;2.80;;;8.20;96.30;;;;;;5058533;28;20048;-88
2021/10/16 01:03:44;;;;;;;4.55;2.60;;;8.10;96.20;;;;;;5021826;28;20024;-88
2021/10/16 01:06:10;;;;;;;4.78;2.50;;;8.10;96.20;;;;;;5046015;28;20020;-88
2021/10/16 01:08:36;;;;;;;4.45;2.00;;;8.10;96.10;;;;;;5040377;28;20028;-88
2021/10/16 01:11:01;;;;;;;5.05;2.30;;;8.10;96.00;;;;;;5060860;28;20029;-88
2021/10/16 01:13:28;;;;;;;4.55;2.30;;;8.00;96.10;;;;;;5060804;28;20103;-88
2021/10/16 01:15:55;;;;;;;8.20;2.90;;;8.00;96.30;;;;;;5061458;28;20026;-87
2021/10/16 01:18:22;;;;;;;6.60;3.10;;;8.00;96.20;;;;;;5059878;28;20048;-88
2021/10/16 01:21:08;;;;;;;6.88;2.85;;;8.00;96.20;;;;;;5057900;28;20028;-88
2021/10/16 01:23:35;;;;;;;4.20;2.67;;;8.00;96.00;;;;;;5057924;28;20039;-87
2021/10/16 01:26:02;;;;;;;5.00;2.60;;;7.90;96.10;;;;;;5021328;28;20123;-88
2021/10/16 01:28:29;;;;;;;6.35;2.83;;;7.90;96.20;;;;;;5034717;28;20009;-89
2021/10/16 01:30:56;;;;;;;9.18;3.40;;;7.90;96.40;;;;;;5070492;28;20046;-88
2021/10/16 01:33:28;;;;;;;7.85;3.97;;;7.90;96.60;;;;;;5064268;28;20040;-89
2021/10/16 01:36:03;;;;;;;14.18;4.50;;;7.90;96.80;;;;;;5068516;28;20088;-89
2021/10/16 01:38:29;;;;;;;11.23;4.07;;;7.90;97.00;;;;;;5049628;28;20020;-89
2021/10/16 01:40:55;;;;;;;11.57;4.43;;;7.90;97.10;;;;;;5061003;28;20036;-88
2021/10/16 01:43:21;;;;;;;8.63;4.63;;;7.90;97.10;;;;;;5031815;28;20358;-89
2021/10/16 01:45:47;;;;;;;9.02;4.57;;;7.90;97.20;;;;;;5035427;28;20067;-89
2021/10/16 01:48:14;;;;;;;13.85;5.00;;;7.90;97.20;;;;;;5038880;28;20553;-89
2021/10/16 01:50:41;;;;;;;9.82;4.28;;;7.90;97.30;;;;;;5033343;28;20068;-86
2021/10/16 01:53:09;;;;;;;11.95;4.70;;;7.90;97.20;;;;;;5056348;28;20046;-86
2021/10/16 01:55:35;;;;;;;8.73;4.78;;;8.00;97.20;;;;;;5056218;28;20044;-86
2021/10/16 01:58:08;;;;;;;10.55;3.92;;;7.90;97.30;;;;;;5020337;28;20056;-86
2021/10/16 02:00:35;;;;;;;10.02;4.10;;;8.00;97.20;;;;;;5061225;28;20143;-86
2021/10/16 02:03:01;;;;;;;10.85;4.45;;;8.00;97.20;;;;;;5036919;28;20021;-86
2021/10/16 02:05:27;;;;;;;8.95;3.90;;;8.00;97.30;;;;;;5072193;28;20165;-88
2021/10/16 02:07:53;;;;;;;11.25;4.72;;;8.00;97.50;;;;;;5040366;28;20031;-88
2021/10/16 02:10:21;;;;;;;8.13;4.28;;;8.00;97.40;;;;;;5056996;28;20451;-86
2021/10/16 02:12:46;;;;;;;12.30;4.20;;;8.00;97.30;;;;;;5040405;28;20458;-86
2021/10/16 02:15:12;;;;;;;8.55;3.97;;;8.00;97.20;;;;;;5075457;28;20021;-88
2021/10/16 02:17:38;;;;;;;6.40;3.35;;;7.90;97.30;;;;;;5056949;28;20012;-88
2021/10/16 02:20:04;;;;;;;7.57;3.33;;;7.90;97.10;;;;;;5040842;28;20124;-88
2021/10/16 02:22:30;;;;;;;7.35;3.10;;;7.90;97.30;;;;;;5022273;28;20044;-88
2021/10/16 02:24:56;;;;;;;7.40;3.63;;;7.90;97.50;;;;;;5041247;28;20024;-88
2021/10/16 02:27:21;;;;;;;7.72;4.20;;;7.90;97.50;;;;;;5058313;28;20036;-88
2021/10/16 02:29:47;;;;;;;6.90;3.63;;;7.90;97.50;;;;;;5059306;28;20019;-88
2021/10/16 02:32:13;;;;;;;10.85;3.30;;;7.90;97.50;;;;;;5063947;28;20020;-87
2021/10/16 02:34:39;;;;;;;12.43;3.92;;;7.90;97.20;;;;;;5028481;28;20481;-87
2021/10/16 02:37:20;;;;;;;7.28;3.70;;;7.80;97.20;;;;;;5045630;28;20024;-88
2021/10/16 02:39:45;;;;;;;6.90;3.75;;;7.80;97.50;;;;;;5059357;28;20013;-87
2021/10/16 02:42:11;;;;;;;8.90;4.38;;;7.80;97.70;;;;;;5023863;28;20477;-88
2021/10/16 02:44:37;;;;;;;7.40;3.45;;;7.80;97.90;;;;;;5039998;28;20025;-87
2021/10/16 02:47:04;;;;;;;5.78;3.28;;;7.80;97.90;;;;;;5023767;28;20032;-89
2021/10/16 02:49:29;;;;;;;6.60;3.78;;;7.80;97.90;;;;;;5056274;28;20048;-86
2021/10/16 02:52:29;;;;;;;5.80;3.42;;;7.80;98.00;;;;;;5039486;28;20067;-86
2021/10/16 02:54:55;;;;;;;6.53;3.20;;;7.80;98.00;;;;;;5039463;28;20060;-86
2021/10/16 02:57:20;;;;;;;6.35;3.75;;;7.80;98.20;;;;;;5024028;28;20021;-85
2021/10/16 02:59:46;;;;;;;6.32;3.72;;;7.90;98.30;;;;;;5040030;28;20393;-86
2021/10/16 03:02:11;;;;;;;6.68;3.20;;;7.90;98.30;;;;;;5056901;28;20043;-86
2021/10/16 03:04:37;;;;;;;6.82;3.65;;;7.90;98.30;;;;;;5056946;28;20029;-86
2021/10/16 03:07:03;;;;;;;5.57;3.25;;;7.90;98.30;;;;;;5022697;28;20465;-89
2021/10/16 03:09:28;;;;;;;6.80;3.28;;;7.90;98.30;;;;;;5043302;28;20029;-89
2021/10/16 03:11:54;;;;;;;5.72;3.60;;;7.90;98.40;;;;;;5043639;28;20017;-88
2021/10/16 03:14:21;;;;;;;6.93;3.60;;;7.90;98.40;;;;;;5043926;28;20024;-88
2021/10/16 03:16:49;;;;;;;8.98;4.07;;;8.00;98.50;;;;;;5023888;28;20025;-89
2021/10/16 03:19:15;;;;;;;8.63;3.88;;;7.90;98.50;;;;;;5041238;28;20013;-89
2021/10/16 03:21:41;;;;;;;8.77;4.07;;;8.00;98.60;;;;;;5043808;28;20070;-89
2021/10/16 03:24:06;;;;;;;7.45;3.90;;;8.00;98.70;;;;;;5027280;28;20037;-89
2021/10/16 03:26:32;;;;;;;8.38;3.92;;;8.00;98.70;;;;;;5027258;28;20025;-89
2021/10/16 03:28:58;;;;;;;12.55;4.32;;;8.00;98.60;;;;;;5027028;28;20021;-89
2021/10/16 03:31:23;;;;;;;10.85;4.45;;;8.00;98.70;;;;;;5060922;28;20066;-89
2021/10/16 03:33:49;;;;;;;11.85;4.38;;;8.00;98.80;;;;;;5056750;28;20026;-89
2021/10/16 03:36:15;;;;;;;10.80;4.57;;;8.10;98.80;;;;;;5060308;28;20557;-89
2021/10/16 03:38:40;;;;;;;10.85;4.32;;;8.10;98.90;;;;;;5043649;28;20024;-89
2021/10/16 03:41:06;;;;;;;10.00;3.95;;;8.10;98.90;;;;;;5026743;28;20082;-89
2021/10/16 03:43:32;;;;;;;10.40;4.85;;;8.20;98.80;;;;;;5041777;28;20032;-89
2021/10/16 03:46:03;;;;;;;9.65;4.55;;;8.20;98.90;;;;;;5029034;28;20031;-89
2021/10/16 03:48:29;;;;;;;10.57;4.78;;;8.20;99.00;;;;;;5027350;28;20025;-88
2021/10/16 03:50:55;;;;;;;9.63;4.50;;;8.20;99.00;;;;;;5036007;28;20032;-86
2021/10/16 03:53:20;;;;;;;13.30;4.53;;;8.20;99.00;;;;;;5042166;28;20028;-86
2021/10/16 03:55:46;;;;;;;8.02;3.70;;;8.30;99.00;;;;;;5026015;28;20044;-88
2021/10/16 03:58:12;;;;;;;7.25;3.50;;;8.20;99.00;;;;;;5059355;28;20029;-87
2021/10/16 04:00:38;;;;;;;8.27;3.90;;;8.30;99.10;;;;;;5040697;28;20025;-88
2021/10/16 04:03:05;;;;;;;9.48;3.90;;;8.30;99.00;;;;;;5059127;28;20385;-87
2021/10/16 04:05:35;;;;;;;8.38;3.92;;;8.30;99.00;;;;;;5026303;28;20020;-87
2021/10/16 04:08:00;;;;;;;10.23;4.10;;;8.30;99.00;;;;;;5039762;28;20037;-89
2021/10/16 04:10:26;;;;;;;8.23;3.95;;;8.30;99.10;;;;;;5027369;28;20075;-88
2021/10/16 04:12:52;;;;;;;11.75;4.47;;;8.30;99.10;;;;;;5062615;28;20051;-88
2021/10/16 04:15:18;;;;;;;6.78;3.45;;;8.30;99.20;;;;;;5063082;28;20017;-88
2021/10/16 04:17:45;;;;;;;11.23;4.90;;;8.30;99.20;;;;;;5062715;28;20021;-88
2021/10/16 04:20:12;;;;;;;6.38;3.17;;;8.30;99.20;;;;;;5063834;28;20021;-88
2021/10/16 04:22:38;;;;;;;6.85;3.97;;;8.30;99.10;;;;;;5060654;28;20032;-88
2021/10/16 04:25:04;;;;;;;7.95;3.88;;;8.30;99.10;;;;;;5044017;28;20020;-88
2021/10/16 04:27:29;;;;;;;7.57;3.90;;;8.30;99.20;;;;;;5025764;28;20036;-89
2021/10/16 04:29:55;;;;;;;7.85;4.03;;;8.30;99.20;;;;;;5025984;28;20485;-86
2021/10/16 04:32:21;;;;;;;7.20;3.38;;;8.30;99.10;;;;;;5022349;28;20031;-86
2021/10/16 04:34:47;;;;;;;6.22;3.17;;;8.30;99.20;;;;;;5038292;28;20354;-86
2021/10/16 04:37:14;;;;;;;6.10;3.53;;;8.30;99.30;;;;;;5033965;28;20020;-89
2021/10/16 04:40:21;;;;;;;7.32;3.17;;;8.30;99.30;;;;;;5040900;28;20031;-86
2021/10/16 04:42:50;;;;;;;8.27;3.42;;;8.30;99.20;;;;;;5056715;28;20070;-86
2021/10/16 04:45:16;;;;;;;7.25;3.72;;;8.30;99.30;;;;;;5057936;28;20454;-86
2021/10/16 04:47:42;;;;;;;6.40;3.40;;;8.30;99.30;;;;;;5043029;28;20031;-89
2021/10/16 04:50:09;;;;;;;6.90;3.58;;;8.30;99.40;;;;;;5059089;28;20103;-88
2021/10/16 04:52:35;;;;;;;6.03;3.30;;;8.40;99.40;;;;;;5059321;28;20119;-88
2021/10/16 04:55:01;;;;;;;8.20;3.65;;;8.40;99.40;;;;;;5041681;28;20164;-88
2021/10/16 04:57:27;;;;;;;7.78;3.70;;;8.40;99.50;;;;;;5058256;28;20028;-88
2021/10/16 04:59:52;;;;;;;7.30;3.75;;;8.40;99.60;;;;;;5058306;28;20035;-88
2021/10/16 05:02:18;;;;;;;8.85;3.47;;;8.40;99.60;;;;;;5041879;28;20029;-88
2021/10/16 05:08:06;;;;;;;7.10;3.67;;;8.40;99.50;;;;;;5074641;28;20051;-88
2021/10/16 05:10:33;;;;;;;10.40;3.95;;;8.40;99.60;;;;;;5041702;28;20063;-89
2021/10/16 05:12:59;;;;;;;7.57;4.07;;;8.40;99.70;;;;;;5058382;28;20032;-89
2021/10/16 05:15:25;;;;;;;5.78;3.45;;;8.40;99.70;;;;;;5021718;28;20025;-89
2021/10/16 05:17:50;;;;;;;13.20;4.43;;;8.50;99.70;;;;;;5054771;28;20029;-89
2021/10/16 05:20:16;;;;;;;8.55;3.72;;;8.40;99.80;;;;;;5054931;28;20020;-86
2021/10/16 05:22:42;;;;;;;9.48;4.00;;;8.50;99.80;;;;;;5038668;28;20029;-86
2021/10/16 05:25:08;;;;;;;8.48;3.90;;;8.50;99.70;;;;;;5053411;28;20048;-86
2021/10/16 05:27:37;;;;;;;9.55;4.05;;;8.50;99.80;;;;;;5058978;28;20024;-86
2021/10/16 05:30:02;;;;;;;9.25;4.03;;;8.50;99.80;;;;;;5060977;28;20032;-86
2021/10/16 05:32:28;;;;;;;8.30;4.00;;;8.50;99.80;;;;;;5058534;28;20021;-86
2021/10/16 05:34:54;;;;;;;10.10;4.32;;;8.50;99.70;;;;;;5041926;28;20089;-86
2021/10/16 05:37:19;;;;;;;10.05;5.10;;;8.50;99.80;;;;;;5023798;28;20062;-86
2021/10/16 05:39:48;;;;;;;10.20;5.47;;;8.50;99.80;;;;;;5024201;28;20024;-86
2021/10/16 05:42:13;;;;;;;11.07;4.88;;;8.50;99.80;;;;;;5040174;28;20035;-87
2021/10/16 05:44:39;;;;;;;10.60;4.93;;;8.50;99.90;;;;;;5040730;28;20092;-86
2021/10/16 05:47:04;;;;;;;11.57;5.10;;;8.50;99.80;;;;;;5041221;28;20514;-87
2021/10/16 05:49:30;;;;;;;7.22;3.90;;;8.50;99.90;;;;;;5060548;28;20024;-86
2021/10/16 05:51:56;;;;;;;8.13;3.90;;;8.40;99.90;;;;;;5041204;28;20032;-88
2021/10/16 05:54:22;;;;;;;9.55;3.97;;;8.50;99.90;;;;;;5050276;28;20083;-88
2021/10/16 05:56:50;;;;;;;7.68;3.60;;;8.50;99.90;;;;;;5044998;28;20089;-89
2021/10/16 05:59:16;;;;;;;7.93;3.88;;;8.40;99.90;;;;;;5059301;28;20016;-89
2021/10/16 06:01:42;;;;;;;8.77;3.78;;;8.40;99.90;;;;;;5059338;28;20031;-90
2021/10/16 06:04:08;;;;;;;9.43;4.20;;;8.50;99.90;;;;;;5057506;28;20094;-89
2021/10/16 06:06:33;;;;;;;8.20;3.67;;;8.50;99.90;;;;;;5053140;28;20069;-89
2021/10/16 06:09:00;;;;;;;10.13;4.45;;;8.50;99.90;;;;;;5048845;28;20035;-89
2021/10/16 06:11:25;;;;;;;7.95;3.95;;;8.50;99.90;;;;;;5057658;28;20017;-90
2021/10/16 06:13:51;;;;;;;8.93;3.92;;;8.50;99.90;;;;;;5040956;28;20021;-89
2021/10/16 06:16:17;;;;;;;9.15;3.83;;;8.60;99.90;;;;;;5060287;28;20443;-89
2021/10/16 06:18:44;;;;;;;10.25;4.38;;;8.60;99.90;;;;;;5042151;28;20021;-89
2021/10/16 06:21:10;;;;;;;9.07;3.70;;;8.60;99.90;;;;;;5059792;28;20108;-89
2021/10/16 06:23:37;;;;;;;6.97;3.53;;;8.60;99.90;;;;;;5076224;28;20112;-89
2021/10/16 06:26:03;;;;;;;7.65;3.72;;;8.60;99.90;;;;;;5057552;28;20024;-89
2021/10/16 06:28:28;;;;;;;10.73;4.18;;;8.60;99.90;;;;;;5057503;28;20074;-89
2021/10/16 06:30:54;;;;;;;9.43;3.80;;;8.60;99.90;;;;;;5057774;28;20141;-89
2021/10/16 06:33:20;;;;;;;10.75;4.00;;;8.70;99.90;;;;;;5057072;28;20025;-90
2021/10/16 06:35:49;;;;;;;7.72;3.65;;;8.60;99.90;;;;;;5058174;28;20449;-89
2021/10/16 06:38:14;;;;;;;10.40;3.95;;;8.70;99.90;;;;;;5026908;28;20037;-89
2021/10/16 06:40:40;;;;;;;8.57;3.80;;;8.70;99.90;;;;;;5036805;28;20017;-89
2021/10/16 06:43:11;;;;;;;8.43;3.13;;;8.70;99.90;;;;;;5031584;28;20021;-89
2021/10/16 06:45:37;;;;;;;9.30;4.25;;;8.70;99.90;;;;;;5032579;28;20025;-87
2021/10/16 06:48:05;;;;;;;8.13;3.63;;;8.70;99.90;;;;;;5041104;28;20037;-88
2021/10/16 06:50:31;;;;;;;8.98;3.70;;;8.70;99.90;;;;;;5040104;28;20032;-88
2021/10/16 06:52:57;;;;;;;10.68;4.28;;;8.70;99.90;;;;;;5037845;28;20025;-88
2021/10/16 06:55:23;;;;;;;7.85;4.05;;;8.70;99.90;;;;;;5038728;28;20049;-88
2021/10/16 06:57:49;;;;;;;10.60;3.90;;;8.80;99.90;;;;;;5022686;28;20532;-88
2021/10/16 07:00:14;;;;;;;10.85;3.55;;;8.80;99.90;;;;;;5055336;28;20430;-88
2021/10/16 07:02:40;;;;;;;9.45;3.92;;;8.80;99.90;;;;;;5058816;28;20541;-88
2021/10/16 07:05:07;;;;;;;6.28;3.65;;;8.80;99.90;;;;;;5040671;28;20098;-88
2021/10/16 07:07:32;;;;;;;10.20;4.45;;;8.80;99.90;;;;;;5045180;28;20021;-88
2021/10/16 07:12:44;;;;;;;8.02;3.63;;;8.80;99.90;;;;;;5063142;28;20133;-88
2021/10/16 07:15:10;;;;;;;9.48;3.95;;;8.90;99.90;;;;;;5040179;28;20071;-88
2021/10/16 07:17:36;;;;;;;6.95;3.80;;;8.90;99.90;;;;;;5039976;28;20025;-88
2021/10/16 07:20:03;;;;;;;9.73;3.70;;;8.90;99.90;;;;;;5056139;28;20032;-89
2021/10/16 07:22:28;;;;;;;8.30;3.90;;;8.90;99.90;;;;;;5026138;28;20465;-89
2021/10/16 07:24:54;;;;;;;9.55;3.83;;;8.90;99.90;;;;;;5056489;28;20027;-89
2021/10/16 07:27:20;;;;;;;10.02;3.95;;;8.90;99.90;;;;;;5022310;28;20029;-88
2021/10/16 07:29:46;;;;;;;8.60;4.07;;;8.90;99.90;;;;;;5056491;28;20111;-88
2021/10/16 07:32:11;;;;;;;8.55;3.85;;;8.90;99.90;;;;;;5039439;28;20504;-88
2021/10/16 07:34:37;;;;;;;10.02;4.50;;;9.00;99.90;;;;;;5039495;28;20017;-88
2021/10/16 07:37:03;;;;;;;10.15;4.28;;;9.00;99.90;;;;;;5039649;28;20029;-88
2021/10/16 07:39:29;;;;;;;9.00;3.95;;;9.00;99.90;;;;;;5026212;28;20086;-88
2021/10/16 07:41:54;;;;;;;9.10;4.13;;;9.00;99.90;;;;;;5040097;28;20016;-88
2021/10/16 07:44:20;;;;;;;11.43;4.50;;;9.00;99.90;;;;;;5026046;28;20044;-89
2021/10/16 07:46:46;;;;;;;10.48;3.63;;;9.10;99.90;;;;;;5023816;28;20151;-89
2021/10/16 07:49:12;;;;;;;10.65;3.65;;;9.10;99.90;;;;;;5056822;28;20024;-86
2021/10/16 07:51:38;;;;;;;9.35;3.88;;;9.10;99.90;;;;;;5055518;28;20047;-86
2021/10/16 07:54:04;;;;;;;7.03;3.33;;;9.10;99.90;;;;;;5059757;28;20027;-88
2021/10/16 07:56:30;;;;;;;7.38;3.67;;;9.10;99.90;;;;;;5059083;28;20040;-89
2021/10/16 07:58:55;;;;;;;7.32;4.15;;;9.20;99.90;;;;;;5050563;28;20428;-88
2021/10/16 08:01:21;;;;;;;8.27;3.47;;;9.20;99.90;;;;;;5054470;28;20040;-89
2021/10/16 08:03:52;;;;;;;9.10;4.13;;;9.20;99.90;;;;;;5046657;28;20420;-89
2021/10/16 08:06:19;;;;;;;10.70;4.22;;;9.30;99.90;;;;;;5067149;28;20078;-87
2021/10/16 08:08:45;;;;;;;12.25;4.00;;;9.20;99.90;;;;;;5046600;28;20522;-89
2021/10/16 08:11:10;;;;;;;8.85;4.05;;;9.30;99.90;;;;;;5059816;28;20020;-89
2021/10/16 08:13:36;;;;;;;10.02;3.70;;;9.30;99.90;;;;;;5043407;28;20367;-89
2021/10/16 08:16:02;;;;;;;7.47;3.60;;;9.30;99.90;;;;;;5027646;28;20060;-89
2021/10/16 08:18:30;;;;;;;7.68;3.35;;;9.40;99.90;;;;;;5059931;28;20107;-88
2021/10/16 08:20:56;;;;;;;9.40;3.92;;;9.40;99.90;;;;;;5060242;28;20024;-88
2021/10/16 08:23:22;;;;;;;5.85;3.05;;;9.40;99.90;;;;;;5043196;28;20043;-89
2021/10/16 08:25:48;;;;;;;6.40;3.10;;;9.40;99.90;;;;;;5060344;28;20115;-89
2021/10/16 08:28:15;;;;;;;10.13;3.88;;;9.40;99.90;;;;;;5059390;28;20020;-89
2021/10/16 08:30:46;;;;;;;10.25;4.30;;;9.40;99.90;;;;;;5060303;28;20032;-88
2021/10/16 08:33:15;;;;;;;;;;;9.50;99.90;;;;;;5061483;28;20025;-89
2021/10/16 08:35:40;;;;;;;6.57;3.10;;;9.50;99.90;;;;;;5070441;28;19904;-89
2021/10/16 08:38:06;;;;;;;8.50;3.25;;;9.50;99.90;;;;;;5047646;28;20030;-88
2021/10/16 08:40:32;;;;;;;8.70;3.50;;;9.60;99.90;;;;;;5028498;28;20020;-88
2021/10/16 08:43:00;;;;;;;12.77;4.10;;;9.60;99.90;;;;;;5061553;28;20035;-88
2021/10/16 08:45:26;;;;;;;9.05;3.55;;;9.60;99.90;;;;;;5044514;28;20048;-88
2021/10/16 08:47:53;;;;;;;11.02;3.90;;;9.70;99.90;;;;;;5063497;28;20016;-87
2021/10/16 08:50:19;;;;;;;9.48;4.22;;;9.70;99.90;;;;;;5055063;28;20021;-88
2021/10/16 08:52:45;;;;;;;8.65;3.70;;;9.70;99.90;;;;;;5058444;28;20016;-89
2021/10/16 08:55:13;;;;;;;9.75;3.67;;;9.70;99.90;;;;;;5041536;28;20478;-89
2021/10/16 08:57:41;;;;;;;10.80;4.15;;;9.70;99.90;;;;;;5058729;28;20025;-88
2021/10/16 09:00:49;;;;;;;10.25;3.95;;;9.80;99.90;;;;;;5061004;28;20021;-89
2021/10/16 09:03:17;;;;;;;11.35;4.15;;;9.80;99.90;;;;;;5078759;28;20099;-88
2021/10/16 09:06:15;;;;;;;8.88;3.70;;;9.90;99.90;;;;;;5062231;28;20070;-89
2021/10/16 09:08:45;;;;;;;8.20;3.22;;;9.80;99.90;;;;;;5077211;28;20048;-88
2021/10/16 09:11:35;;;;;;;12.10;4.53;;;9.90;99.90;;;;;;5083914;28;20043;-88
2021/10/16 09:14:12;;;;;;;8.13;3.53;;;9.90;99.90;;;;;;5072219;28;20041;-89
2021/10/16 09:16:40;;;;;;;9.57;3.75;;;10.00;99.90;;;;;;5061124;28;20025;-88
2021/10/16 09:19:15;;;;;;;9.60;3.72;;;10.00;99.90;;;;;;5042314;28;20085;-87
2021/10/16 09:21:54;;;;;;;9.65;3.40;;;10.00;99.90;;;;;;5057489;28;20480;-88
2021/10/16 09:24:31;;;;;;;11.18;3.20;;;10.10;99.90;;;;;;5078773;28;20067;-85
2021/10/16 09:27:00;;;;;;;8.82;2.92;;;10.10;99.90;;;;;;5057879;28;20063;-84
2021/10/16 09:29:28;;;;;;;11.00;3.72;;;10.10;99.90;;;;;;5059417;28;20020;-84
2021/10/16 09:31:57;;;;;;;14.30;3.53;;;10.10;99.90;;;;;;5077320;28;20040;-84
2021/10/16 09:34:25;;;;;;;8.02;3.40;;;10.20;99.90;;;;;;5059142;28;20013;-84
2021/10/16 09:37:07;;;;;;;12.73;3.85;;;10.20;99.90;;;;;;5049909;28;20107;-84
2021/10/16 09:39:38;;;;;;;10.98;3.40;;;10.20;99.90;;;;;;5074373;28;20028;-85
2021/10/16 09:42:06;;;;;;;18.35;3.97;;;10.20;99.90;;;;;;5062144;28;20020;-85
2021/10/16 09:44:39;;;;;;;10.23;3.85;;;10.30;99.90;;;;;;5060203;28;20120;-85
2021/10/16 09:47:05;;;;;;;14.38;3.58;;;10.30;99.90;;;;;;5072165;28;20101;-87
2021/10/16 09:49:40;;;;;;;16.65;3.95;;;10.30;99.90;;;;;;5057653;28;20354;-87
2021/10/16 09:52:09;;;;;;;15.50;3.55;;;10.30;99.90;;;;;;5057300;28;20417;-88
2021/10/16 09:54:35;;;;;;;12.02;3.50;;;10.40;99.90;;;;;;5056857;28;20017;-88
2021/10/16 09:57:09;;;;;;;12.93;3.72;;;10.40;99.90;;;;;;5037159;28;20163;-88
2021/10/16 09:59:40;;;;;;;11.20;3.30;;;10.40;99.90;;;;;;5054835;28;20056;-88
2021/10/16 10:02:07;;;;;;;11.43;3.63;;;10.50;99.90;;;;;;5052283;28;20032;-88
2021/10/16 10:04:45;;;;;;;8.60;2.55;;;10.50;99.90;;;;;;5065927;28;20373;-88
2021/10/16 10:07:11;;;;;;;12.85;3.08;;;10.60;99.90;;;;;;5059414;28;20465;-88
2021/10/16 10:09:39;;;;;;;9.70;2.90;;;10.60;99.90;;;;;;5048124;22;20306;-88
2021/10/16 10:12:06;;;;;;;14.68;3.70;;;10.70;99.90;;;;;;5040125;28;20097;-89
2021/10/16 10:14:32;;;;;;;15.98;3.83;;;10.70;99.90;;;;;;5038828;28;20017;-88
2021/10/16 10:17:06;;;;;;;13.93;3.15;;;10.70;99.90;;;;;;5020475;28;20105;-88
2021/10/16 10:19:40;;;;;;;12.98;3.47;;;10.80;99.90;;;;;;5041797;28;20458;-89
2021/10/16 10:22:10;;;;;;;12.05;3.42;;;10.80;99.90;;;;;;5036862;28;20021;-89
2021/10/16 10:24:42;;;;;;;14.45;3.85;;;10.80;99.90;;;;;;5021117;28;20524;-88
2021/10/16 10:27:08;;;;;;;;;;;10.90;99.80;;;;;;5050646;28;20478;-90
2021/10/16 10:29:37;;;;;;;11.15;3.13;;;10.90;99.60;;;;;;5054391;28;20000;-89
2021/10/16 10:32:15;;;;;;;13.52;3.78;;;10.90;99.30;;;;;;5072489;28;20043;-90
2021/10/16 10:34:50;;;;;;;12.18;3.42;;;10.90;99.60;;;;;;5048657;28;20489;-90
2021/10/16 10:37:16;;;;;;;14.32;3.70;;;10.90;99.80;;;;;;5039629;28;20071;-89
2021/10/16 10:39:46;;;;;;;10.05;3.78;;;11.00;98.90;;;;;;5020070;28;20025;-88
2021/10/16 10:42:12;;;;;;;11.90;3.97;;;11.00;99.40;;;;;;5044341;28;20028;-89
2021/10/16 10:44:42;;;;;;;13.30;3.80;;;11.10;99.80;;;;;;5050080;28;20520;-89
2021/10/16 10:47:29;;;;;;;11.98;3.50;;;11.10;99.10;;;;;;5048617;28;20112;-89
2021/10/16 10:49:56;;;;;;;13.35;4.25;;;11.10;99.00;;;;;;5047144;28;20120;-89
2021/10/16 10:52:23;;;;;;;13.70;4.00;;;11.20;99.30;;;;;;5042302;28;20482;-89
2021/10/16 10:55:37;;;;;;;13.38;3.30;;;11.20;99.10;;;;;;5038733;28;20017;-89
2021/10/16 10:58:03;;;;;;;10.57;3.20;;;11.30;98.90;;;;;;5061723;28;20404;-89
2021/10/16 11:00:57;;;;;;;10.20;3.30;;;11.30;99.60;;;;;;5014861;28;20080;-89
2021/10/16 11:03:29;;;;;;;13.13;3.90;;;11.40;98.70;;;;;;5039279;28;20020;-89
2021/10/16 11:06:18;;;;;;;14.05;4.05;;;11.40;98.30;;;;;;5044319;28;20020;-89
2021/10/16 11:08:48;;;;;;;14.30;3.67;;;11.40;98.40;;;;;;5063319;28;20013;-87
2021/10/16 11:11:17;;;;;;;13.02;4.03;;;11.50;98.30;;;;;;5035776;28;20049;-87
2021/10/16 11:13:42;;;;;;;13.73;4.47;;;11.50;98.30;;;;;;5030666;28;20048;-86
2021/10/16 11:16:09;;;;;;;12.85;4.20;;;11.50;97.80;;;;;;5034966;28;20018;-86
2021/10/16 11:18:36;;;;;;;14.38;3.55;;;11.50;98.00;;;;;;5052676;28;20458;-86
2021/10/16 11:21:10;;;;;;;13.05;3.90;;;11.60;97.30;;;;;;5032100;28;20029;-87
2021/10/16 11:23:37;;;;;;;11.35;4.00;;;11.60;97.40;;;;;;5048503;28;20013;-87
2021/10/16 11:26:04;;;;;;;13.73;3.67;;;11.70;98.10;;;;;;5047175;28;20029;-90
2021/10/16 11:28:33;;;;;;;12.13;3.90;;;11.70;97.30;;;;;;5052584;28;20378;-86
2021/10/16 11:31:11;;;;;;;8.90;3.03;;;11.80;97.80;;;;;;5056603;28;20044;-89
2021/10/16 11:33:41;;;;;;;9.27;2.80;;;11.80;96.70;;;;;;5039912;28;20029;-90
2021/10/16 11:36:09;;;;;;;11.32;3.63;;;11.90;97.60;;;;;;5064373;28;20024;-89
2021/10/16 11:38:37;;;;;;;11.48;2.55;;;12.00;97.30;;;;;;5052096;28;20040;-91
2021/10/16 11:41:05;;;;;;;13.27;3.10;;;12.00;97.90;;;;;;5041827;28;20108;-89
2021/10/16 11:43:34;;;;;;;13.45;3.00;;;12.10;97.50;;;;;;5056421;28;20029;-91
2021/10/16 11:46:01;;;;;;;10.50;3.13;;;12.20;96.90;;;;;;5047140;28;20061;-90
2021/10/16 11:48:28;;;;;;;11.77;3.10;;;12.20;96.50;;;;;;5020894;28;20056;-90
2021/10/16 11:50:59;;;;;;;8.30;2.50;;;12.30;96.40;;;;;;5070931;28;20538;-87
2021/10/16 11:53:27;;;;;;;10.63;2.90;;;12.30;96.20;;;;;;5047395;28;20025;-89
2021/10/16 11:55:55;;;;;;;14.40;2.78;;;12.40;96.80;;;;;;5041284;28;20029;-89
2021/10/16 11:58:23;;;;;;;8.77;2.40;;;12.40;96.40;;;;;;5039560;28;20127;-88
2021/10/16 12:01:00;;;;;;;9.55;2.70;;;12.50;95.40;;;;;;5046926;28;20041;-89
2021/10/16 12:03:44;;;;;;;14.40;3.38;;;12.60;95.50;;;;;;5043676;28;20048;-88
2021/10/16 12:06:14;;;;;;;11.88;3.20;;;12.60;95.00;;;;;;5031302;28;20500;-88
2021/10/16 12:08:48;;;;;;;11.68;3.13;;;12.70;94.80;;;;;;5027669;28;20049;-88
2021/10/16 12:11:22;;;;;;;10.30;3.45;;;12.70;94.20;;;;;;5036250;28;20080;-89
2021/10/16 12:14:01;;;;;;;13.40;3.28;;;12.80;94.10;;;;;;5036167;28;20098;-88
2021/10/16 12:16:38;;;;;;;14.32;3.38;;;12.80;93.90;;;;;;5036409;28;20032;-89
2021/10/16 12:19:11;;;;;;;10.57;2.38;;;12.90;94.60;;;;;;5036435;28;20179;-88
2021/10/16 12:21:39;;;;;;;9.93;2.58;;;12.90;95.00;;;;;;5019673;28;20022;-89
2021/10/16 12:24:11;;;;;;;8.60;2.60;;;13.00;95.10;;;;;;5035989;28;20076;-88
2021/10/16 12:26:37;;;;;;;12.75;2.63;;;13.00;93.90;;;;;;5051797;28;20043;-88
2021/10/16 12:29:06;;;;;;;10.82;2.65;;;13.10;95.30;;;;;;5019530;28;20043;-86
2021/10/16 12:31:47;;;;;;;9.90;2.20;;;13.10;95.40;;;;;;5036020;28;20029;-86
2021/10/16 12:34:15;;;;;;;7.40;2.65;;;13.10;95.70;;;;;;5036347;28;20204;-87
2021/10/16 12:36:48;;;;;;;9.10;2.28;;;13.20;95.60;;;;;;5052452;28;20060;-87
2021/10/16 12:39:32;;;;;;;10.55;2.63;;;13.20;95.20;;;;;;5035278;28;20025;-88
2021/10/16 12:42:15;;;;;;;9.45;2.20;;;13.20;94.60;;;;;;5026513;28;20021;-87
2021/10/16 12:44:42;;;;;;;9.18;2.40;;;13.20;93.40;;;;;;5040826;28;20056;-87
2021/10/16 12:47:24;;;;;;;7.18;2.47;;;13.20;93.80;;;;;;5051953;28;20068;-87
2021/10/16 12:49:55;;;;;;;11.18;2.72;;;13.20;94.20;;;;;;5060200;28;20029;-87
2021/10/16 12:52:36;;;;;;;9.98;2.30;;;13.20;93.60;;;;;;5053117;28;20077;-87
2021/10/16 12:55:18;;;;;;;;;;;13.30;94.40;;;;;;5062230;28;20057;-89
2021/10/16 12:58:05;;;;;;;5.93;2.05;;;13.30;94.10;;;;;;5041666;28;19924;-89
2021/10/16 13:00:46;;;;;;;12.32;2.90;;;13.30;93.50;;;;;;5046171;28;20032;-88
2021/10/16 13:03:13;;;;;;;;;;;13.30;94.50;;;;;;5045825;28;20108;-86